sensor_id;sensor_type;location;lat;lon;timestamp;temperature;humidity
4566;DHT22;2295;51.050;14.608;2022-08-11T00:02:32;12.40;91.90
4566;DHT22;2295;51.050;14.608;2022-08-11T00:05:05;12.40;92.20
4566;DHT22;2295;51.050;14.608;2022-08-11T00:07:34;12.40;92.10
4566;DHT22;2295;51.050;14.608;2022-08-11T00:10:10;12.40;92.30
4566;DHT22;2295;51.050;14.608;2022-08-11T00:12:40;12.40;92.30
4566;DHT22;2295;51.050;14.608;2022-08-11T00:15:11;12.30;92.20
4566;DHT22;2295;51.050;14.608;2022-08-11T00:17:40;12.30;92.20
4566;DHT22;2295;51.050;14.608;2022-08-11T00:20:11;12.30;92.30
4566;DHT22;2295;51.050;14.608;2022-08-11T00:22:45;12.20;92.30
4566;DHT22;2295;51.050;14.608;2022-08-11T00:25:17;12.10;92.40
4566;DHT22;2295;51.050;14.608;2022-08-11T00:27:47;12.00;92.50
4566;DHT22;2295;51.050;14.608;2022-08-11T00:30:16;11.90;92.70
4566;DHT22;2295;51.050;14.608;2022-08-11T00:32:54;11.80;92.80
4566;DHT22;2295;51.050;14.608;2022-08-11T00:35:27;11.70;93.00
4566;DHT22;2295;51.050;14.608;2022-08-11T00:38:23;11.70;93.30
4566;DHT22;2295;51.050;14.608;2022-08-11T00:40:55;11.60;93.50
4566;DHT22;2295;51.050;14.608;2022-08-11T00:43:41;11.60;93.80
4566;DHT22;2295;51.050;14.608;2022-08-11T00:46:25;11.60;93.80
4566;DHT22;2295;51.050;14.608;2022-08-11T00:49:08;11.50;93.80
4566;DHT22;2295;51.050;14.608;2022-08-11T00:51:54;11.50;93.70
4566;DHT22;2295;51.050;14.608;2022-08-11T00:57:55;11.40;94.60
4566;DHT22;2295;51.050;14.608;2022-08-11T01:00:33;11.30;94.70
4566;DHT22;2295;51.050;14.608;2022-08-11T01:03:17;11.30;94.30
4566;DHT22;2295;51.050;14.608;2022-08-11T01:06:13;11.20;94.30
4566;DHT22;2295;51.050;14.608;2022-08-11T01:09:19;11.20;94.20
4566;DHT22;2295;51.050;14.608;2022-08-11T01:12:31;11.20;94.30
4566;DHT22;2295;51.050;14.608;2022-08-11T01:15:35;11.10;94.20
4566;DHT22;2295;51.050;14.608;2022-08-11T01:31:17;11.10;94.60
4566;DHT22;2295;51.050;14.608;2022-08-11T01:34:18;11.10;94.60
4566;DHT22;2295;51.050;14.608;2022-08-11T01:37:12;11.00;94.50
4566;DHT22;2295;51.050;14.608;2022-08-11T01:43:03;10.90;94.70
4566;DHT22;2295;51.050;14.608;2022-08-11T01:45:56;11.00;94.90
4566;DHT22;2295;51.050;14.608;2022-08-11T01:48:35;11.00;94.70
4566;DHT22;2295;51.050;14.608;2022-08-11T01:51:22;11.00;94.70
4566;DHT22;2295;51.050;14.608;2022-08-11T01:53:59;11.00;94.70
4566;DHT22;2295;51.050;14.608;2022-08-11T01:56:52;11.00;94.70
4566;DHT22;2295;51.050;14.608;2022-08-11T01:59:28;11.00;94.70
4566;DHT22;2295;51.050;14.608;2022-08-11T02:02:25;11.10;94.70
4566;DHT22;2295;51.050;14.608;2022-08-11T02:05:26;11.00;94.50
4566;DHT22;2295;51.050;14.608;2022-08-11T02:08:01;11.00;94.70
4566;DHT22;2295;51.050;14.608;2022-08-11T02:10:39;11.00;94.50
4566;DHT22;2295;51.050;14.608;2022-08-11T02:13:39;11.00;94.70
4566;DHT22;2295;51.050;14.608;2022-08-11T02:16:18;11.00;94.60
4566;DHT22;2295;51.050;14.608;2022-08-11T02:18:52;10.90;94.60
4566;DHT22;2295;51.050;14.608;2022-08-11T02:21:45;10.90;94.60
4566;DHT22;2295;51.050;14.608;2022-08-11T02:24:43;10.90;94.50
4566;DHT22;2295;51.050;14.608;2022-08-11T02:27:18;10.90;94.70
4566;DHT22;2295;51.050;14.608;2022-08-11T02:29:56;10.80;94.70
4566;DHT22;2295;51.050;14.608;2022-08-11T02:32:37;10.80;94.80
4566;DHT22;2295;51.050;14.608;2022-08-11T02:35:27;10.80;95.00
4566;DHT22;2295;51.050;14.608;2022-08-11T02:38:07;10.70;95.20
4566;DHT22;2295;51.050;14.608;2022-08-11T02:40:47;10.60;95.10
4566;DHT22;2295;51.050;14.608;2022-08-11T02:43:29;10.50;95.30
4566;DHT22;2295;51.050;14.608;2022-08-11T02:46:16;10.50;95.40
4566;DHT22;2295;51.050;14.608;2022-08-11T02:48:59;10.50;95.60
4566;DHT22;2295;51.050;14.608;2022-08-11T02:52:00;10.40;95.80
4566;DHT22;2295;51.050;14.608;2022-08-11T02:54:38;10.40;95.90
4566;DHT22;2295;51.050;14.608;2022-08-11T02:57:15;10.40;96.10
4566;DHT22;2295;51.050;14.608;2022-08-11T02:59:52;10.30;96.10
4566;DHT22;2295;51.050;14.608;2022-08-11T03:05:54;10.30;95.90
4566;DHT22;2295;51.050;14.608;2022-08-11T03:08:39;10.20;95.90
4566;DHT22;2295;51.050;14.608;2022-08-11T03:11:23;10.20;96.10
4566;DHT22;2295;51.050;14.608;2022-08-11T03:14:14;10.20;96.70
4566;DHT22;2295;51.050;14.608;2022-08-11T03:17:15;10.20;97.50
4566;DHT22;2295;51.050;14.608;2022-08-11T03:20:02;10.30;97.10
4566;DHT22;2295;51.050;14.608;2022-08-11T03:22:36;10.30;97.30
4566;DHT22;2295;51.050;14.608;2022-08-11T03:25:11;10.30;96.70
4566;DHT22;2295;51.050;14.608;2022-08-11T03:27:49;10.20;96.90
4566;DHT22;2295;51.050;14.608;2022-08-11T03:30:24;10.20;96.80
4566;DHT22;2295;51.050;14.608;2022-08-11T03:33:07;10.20;96.80
4566;DHT22;2295;51.050;14.608;2022-08-11T03:36:07;10.20;96.80
4566;DHT22;2295;51.050;14.608;2022-08-11T03:38:47;10.20;97.10
4566;DHT22;2295;51.050;14.608;2022-08-11T03:41:22;10.20;96.90
4566;DHT22;2295;51.050;14.608;2022-08-11T03:44:47;10.20;97.30
4566;DHT22;2295;51.050;14.608;2022-08-11T03:47:44;10.20;96.70
4566;DHT22;2295;51.050;14.608;2022-08-11T03:50:37;10.20;97.00
4566;DHT22;2295;51.050;14.608;2022-08-11T03:53:31;10.20;96.70
4566;DHT22;2295;51.050;14.608;2022-08-11T03:56:19;10.20;96.60
4566;DHT22;2295;51.050;14.608;2022-08-11T03:59:22;10.20;96.80
4566;DHT22;2295;51.050;14.608;2022-08-11T04:02:14;10.20;97.10
4566;DHT22;2295;51.050;14.608;2022-08-11T04:11:30;10.20;96.60
4566;DHT22;2295;51.050;14.608;2022-08-11T04:14:20;10.20;96.60
4566;DHT22;2295;51.050;14.608;2022-08-11T04:23:47;10.30;96.60
4566;DHT22;2295;51.050;14.608;2022-08-11T04:29:56;10.50;96.10
4566;DHT22;2295;51.050;14.608;2022-08-11T04:33:01;10.50;96.10
4566;DHT22;2295;51.050;14.608;2022-08-11T04:35:38;10.50;96.00
4566;DHT22;2295;51.050;14.608;2022-08-11T04:38:43;10.60;95.90
4566;DHT22;2295;51.050;14.608;2022-08-11T04:47:55;10.90;95.70
4566;DHT22;2295;51.050;14.608;2022-08-11T04:51:01;11.10;95.50
4566;DHT22;2295;51.050;14.608;2022-08-11T04:53:59;11.40;95.10
4566;DHT22;2295;51.050;14.608;2022-08-11T04:56:46;11.70;94.60
4566;DHT22;2295;51.050;14.608;2022-08-11T05:00:02;12.00;94.00
4566;DHT22;2295;51.050;14.608;2022-08-11T05:03:34;12.30;93.70
4566;DHT22;2295;51.050;14.608;2022-08-11T05:09:33;14.20;90.50
4566;DHT22;2295;51.050;14.608;2022-08-11T05:12:21;15.30;86.60
4566;DHT22;2295;51.050;14.608;2022-08-11T05:14:56;16.20;83.20
4566;DHT22;2295;51.050;14.608;2022-08-11T05:17:47;16.90;80.20
4566;DHT22;2295;51.050;14.608;2022-08-11T05:20:46;17.50;77.30
4566;DHT22;2295;51.050;14.608;2022-08-11T05:23:35;18.10;74.60
4566;DHT22;2295;51.050;14.608;2022-08-11T05:26:24;18.70;72.30
4566;DHT22;2295;51.050;14.608;2022-08-11T05:29:43;19.10;70.50
4566;DHT22;2295;51.050;14.608;2022-08-11T05:32:34;19.60;69.40
4566;DHT22;2295;51.050;14.608;2022-08-11T05:35:31;19.90;68.50
4566;DHT22;2295;51.050;14.608;2022-08-11T05:38:24;20.00;68.00
4566;DHT22;2295;51.050;14.608;2022-08-11T05:41:11;19.90;67.80
4566;DHT22;2295;51.050;14.608;2022-08-11T05:43:58;19.30;69.40
4566;DHT22;2295;51.050;14.608;2022-08-11T05:46:48;18.80;71.80
4566;DHT22;2295;51.050;14.608;2022-08-11T05:49:34;18.30;73.40
4566;DHT22;2295;51.050;14.608;2022-08-11T05:52:25;18.10;75.30
4566;DHT22;2295;51.050;14.608;2022-08-11T05:55:14;18.30;77.30
4566;DHT22;2295;51.050;14.608;2022-08-11T05:58:02;19.50;74.70
4566;DHT22;2295;51.050;14.608;2022-08-11T06:00:31;20.90;69.80
4566;DHT22;2295;51.050;14.608;2022-08-11T06:03:08;22.30;64.80
4566;DHT22;2295;51.050;14.608;2022-08-11T06:05:39;23.70;61.30
4566;DHT22;2295;51.050;14.608;2022-08-11T06:08:11;25.10;55.40
4566;DHT22;2295;51.050;14.608;2022-08-11T06:10:43;25.90;53.00
4566;DHT22;2295;51.050;14.608;2022-08-11T06:13:15;26.60;51.00
4566;DHT22;2295;51.050;14.608;2022-08-11T06:15:45;27.70;48.70
4566;DHT22;2295;51.050;14.608;2022-08-11T06:18:14;28.30;46.60
4566;DHT22;2295;51.050;14.608;2022-08-11T06:20:46;28.20;45.80
4566;DHT22;2295;51.050;14.608;2022-08-11T06:23:17;29.10;44.20
4566;DHT22;2295;51.050;14.608;2022-08-11T06:25:47;29.60;43.20
4566;DHT22;2295;51.050;14.608;2022-08-11T06:28:17;30.10;42.00
4566;DHT22;2295;51.050;14.608;2022-08-11T06:30:48;29.70;42.80
4566;DHT22;2295;51.050;14.608;2022-08-11T06:33:28;29.90;42.10
4566;DHT22;2295;51.050;14.608;2022-08-11T06:36:02;30.60;42.20
4566;DHT22;2295;51.050;14.608;2022-08-11T06:38:42;30.90;38.80
4566;DHT22;2295;51.050;14.608;2022-08-11T06:41:18;30.30;39.90
4566;DHT22;2295;51.050;14.608;2022-08-11T06:44:14;30.50;40.50
4566;DHT22;2295;51.050;14.608;2022-08-11T06:46:46;30.40;38.90
4566;DHT22;2295;51.050;14.608;2022-08-11T06:49:17;30.30;40.00
4566;DHT22;2295;51.050;14.608;2022-08-11T06:52:05;30.00;38.10
4566;DHT22;2295;51.050;14.608;2022-08-11T06:54:55;29.50;41.60
4566;DHT22;2295;51.050;14.608;2022-08-11T06:57:34;29.90;39.80
4566;DHT22;2295;51.050;14.608;2022-08-11T07:00:21;30.00;38.90
4566;DHT22;2295;51.050;14.608;2022-08-11T07:03:02;29.50;38.20
4566;DHT22;2295;51.050;14.608;2022-08-11T07:05:44;29.10;39.40
4566;DHT22;2295;51.050;14.608;2022-08-11T07:12:02;28.80;40.60
4566;DHT22;2295;51.050;14.608;2022-08-11T07:14:54;28.60;41.40
4566;DHT22;2295;51.050;14.608;2022-08-11T07:17:43;28.80;41.60
4566;DHT22;2295;51.050;14.608;2022-08-11T07:20:17;29.20;41.80
4566;DHT22;2295;51.050;14.608;2022-08-11T07:23:04;29.30;39.60
4566;DHT22;2295;51.050;14.608;2022-08-11T07:25:55;29.20;39.50
4566;DHT22;2295;51.050;14.608;2022-08-11T07:28:45;29.10;41.20
4566;DHT22;2295;51.050;14.608;2022-08-11T07:31:30;29.20;40.60
4566;DHT22;2295;51.050;14.608;2022-08-11T07:34:08;29.40;40.00
4566;DHT22;2295;51.050;14.608;2022-08-11T07:36:48;29.20;40.20
4566;DHT22;2295;51.050;14.608;2022-08-11T07:39:19;29.00;39.40
4566;DHT22;2295;51.050;14.608;2022-08-11T07:41:50;29.00;38.70
4566;DHT22;2295;51.050;14.608;2022-08-11T07:44:20;28.90;39.60
4566;DHT22;2295;51.050;14.608;2022-08-11T07:46:49;29.30;40.00
4566;DHT22;2295;51.050;14.608;2022-08-11T07:49:37;29.30;39.80
4566;DHT22;2295;51.050;14.608;2022-08-11T07:52:27;29.40;38.70
4566;DHT22;2295;51.050;14.608;2022-08-11T07:55:02;29.60;38.60
4566;DHT22;2295;51.050;14.608;2022-08-11T07:57:31;29.60;38.40
4566;DHT22;2295;51.050;14.608;2022-08-11T08:00:39;29.60;38.10
4566;DHT22;2295;51.050;14.608;2022-08-11T08:03:30;29.60;37.90
4566;DHT22;2295;51.050;14.608;2022-08-11T08:06:21;29.90;38.00
4566;DHT22;2295;51.050;14.608;2022-08-11T08:09:08;29.60;37.70
4566;DHT22;2295;51.050;14.608;2022-08-11T08:11:54;29.20;38.30
4566;DHT22;2295;51.050;14.608;2022-08-11T08:14:41;29.20;38.50
4566;DHT22;2295;51.050;14.608;2022-08-11T08:17:28;28.70;39.00
4566;DHT22;2295;51.050;14.608;2022-08-11T08:20:37;28.70;39.10
4566;DHT22;2295;51.050;14.608;2022-08-11T08:23:06;28.80;38.30
4566;DHT22;2295;51.050;14.608;2022-08-11T08:25:38;28.50;38.40
4566;DHT22;2295;51.050;14.608;2022-08-11T08:28:09;28.60;39.10
4566;DHT22;2295;51.050;14.608;2022-08-11T08:30:40;28.90;38.50
4566;DHT22;2295;51.050;14.608;2022-08-11T08:33:19;29.00;37.30
4566;DHT22;2295;51.050;14.608;2022-08-11T08:35:51;28.90;38.00
4566;DHT22;2295;51.050;14.608;2022-08-11T08:38:39;29.30;37.50
4566;DHT22;2295;51.050;14.608;2022-08-11T08:41:08;29.50;35.90
4566;DHT22;2295;51.050;14.608;2022-08-11T08:43:43;29.10;36.20
4566;DHT22;2295;51.050;14.608;2022-08-11T08:46:18;29.20;37.80
4566;DHT22;2295;51.050;14.608;2022-08-11T08:48:48;29.70;36.50
4566;DHT22;2295;51.050;14.608;2022-08-11T08:51:21;30.10;36.20
4566;DHT22;2295;51.050;14.608;2022-08-11T08:54:26;30.70;35.80
4566;DHT22;2295;51.050;14.608;2022-08-11T08:56:57;30.40;34.20
4566;DHT22;2295;51.050;14.608;2022-08-11T08:59:28;30.00;35.40
4566;DHT22;2295;51.050;14.608;2022-08-11T09:02:16;29.70;36.50
4566;DHT22;2295;51.050;14.608;2022-08-11T09:05:01;29.70;35.70
4566;DHT22;2295;51.050;14.608;2022-08-11T09:07:32;29.60;35.20
4566;DHT22;2295;51.050;14.608;2022-08-11T09:10:07;29.80;34.10
4566;DHT22;2295;51.050;14.608;2022-08-11T09:12:38;30.10;33.70
4566;DHT22;2295;51.050;14.608;2022-08-11T09:15:09;29.90;31.90
4566;DHT22;2295;51.050;14.608;2022-08-11T09:17:40;29.90;32.80
4566;DHT22;2295;51.050;14.608;2022-08-11T09:20:12;30.00;33.50
4566;DHT22;2295;51.050;14.608;2022-08-11T09:22:43;30.10;32.10
4566;DHT22;2295;51.050;14.608;2022-08-11T09:25:51;30.10;32.70
4566;DHT22;2295;51.050;14.608;2022-08-11T09:28:41;30.20;32.60
4566;DHT22;2295;51.050;14.608;2022-08-11T09:31:11;30.60;31.70
4566;DHT22;2295;51.050;14.608;2022-08-11T09:33:41;30.80;30.00
4566;DHT22;2295;51.050;14.608;2022-08-11T09:36:12;31.20;32.60
4566;DHT22;2295;51.050;14.608;2022-08-11T09:39:02;31.50;30.60
4566;DHT22;2295;51.050;14.608;2022-08-11T09:41:49;31.80;29.90
4566;DHT22;2295;51.050;14.608;2022-08-11T09:44:30;30.80;29.40
4566;DHT22;2295;51.050;14.608;2022-08-11T09:47:19;30.50;30.90
4566;DHT22;2295;51.050;14.608;2022-08-11T09:49:52;30.60;29.50
4566;DHT22;2295;51.050;14.608;2022-08-11T09:52:23;30.10;30.90
4566;DHT22;2295;51.050;14.608;2022-08-11T09:54:53;30.40;30.30
4566;DHT22;2295;51.050;14.608;2022-08-11T09:57:22;30.40;31.00
4566;DHT22;2295;51.050;14.608;2022-08-11T10:00:11;30.50;30.00
4566;DHT22;2295;51.050;14.608;2022-08-11T10:02:42;30.40;32.30
4566;DHT22;2295;51.050;14.608;2022-08-11T10:05:14;30.40;29.70
4566;DHT22;2295;51.050;14.608;2022-08-11T10:08:03;30.30;29.50
4566;DHT22;2295;51.050;14.608;2022-08-11T10:10:35;30.60;30.60
4566;DHT22;2295;51.050;14.608;2022-08-11T10:13:06;30.40;29.60
4566;DHT22;2295;51.050;14.608;2022-08-11T10:15:58;30.20;30.00
4566;DHT22;2295;51.050;14.608;2022-08-11T10:18:45;30.40;29.80
4566;DHT22;2295;51.050;14.608;2022-08-11T10:21:31;30.30;30.60
4566;DHT22;2295;51.050;14.608;2022-08-11T10:24:04;30.50;32.70
4566;DHT22;2295;51.050;14.608;2022-08-11T10:26:53;31.00;29.30
4566;DHT22;2295;51.050;14.608;2022-08-11T10:29:29;30.90;30.10
4566;DHT22;2295;51.050;14.608;2022-08-11T10:32:19;30.90;31.20
4566;DHT22;2295;51.050;14.608;2022-08-11T10:35:25;29.90;30.90
4566;DHT22;2295;51.050;14.608;2022-08-11T10:37:53;28.80;33.20
4566;DHT22;2295;51.050;14.608;2022-08-11T10:40:36;28.70;33.00
4566;DHT22;2295;51.050;14.608;2022-08-11T10:43:08;28.60;32.40
4566;DHT22;2295;51.050;14.608;2022-08-11T10:45:42;28.70;33.40
4566;DHT22;2295;51.050;14.608;2022-08-11T10:48:30;28.90;33.80
4566;DHT22;2295;51.050;14.608;2022-08-11T10:51:02;29.30;33.60
4566;DHT22;2295;51.050;14.608;2022-08-11T10:53:41;28.80;34.90
4566;DHT22;2295;51.050;14.608;2022-08-11T10:56:28;29.30;34.10
4566;DHT22;2295;51.050;14.608;2022-08-11T10:59:16;30.30;33.50
4566;DHT22;2295;51.050;14.608;2022-08-11T11:01:45;30.10;31.50
4566;DHT22;2295;51.050;14.608;2022-08-11T11:04:15;29.60;33.00
4566;DHT22;2295;51.050;14.608;2022-08-11T11:06:50;29.50;33.10
4566;DHT22;2295;51.050;14.608;2022-08-11T11:09:24;29.50;33.60
4566;DHT22;2295;51.050;14.608;2022-08-11T11:11:58;29.60;33.00
4566;DHT22;2295;51.050;14.608;2022-08-11T11:14:46;29.20;33.30
4566;DHT22;2295;51.050;14.608;2022-08-11T11:17:37;29.10;33.40
4566;DHT22;2295;51.050;14.608;2022-08-11T11:20:34;29.00;34.90
4566;DHT22;2295;51.050;14.608;2022-08-11T11:23:13;29.40;34.80
4566;DHT22;2295;51.050;14.608;2022-08-11T11:26:11;29.40;33.30
4566;DHT22;2295;51.050;14.608;2022-08-11T11:29:20;29.30;33.60
4566;DHT22;2295;51.050;14.608;2022-08-11T11:32:15;29.40;32.80
4566;DHT22;2295;51.050;14.608;2022-08-11T11:35:03;29.70;33.10
4566;DHT22;2295;51.050;14.608;2022-08-11T11:37:38;30.20;33.30
4566;DHT22;2295;51.050;14.608;2022-08-11T11:40:28;30.70;33.60
4566;DHT22;2295;51.050;14.608;2022-08-11T11:42:58;30.70;31.40
4566;DHT22;2295;51.050;14.608;2022-08-11T11:45:27;30.00;32.40
4566;DHT22;2295;51.050;14.608;2022-08-11T11:47:59;29.90;33.60
4566;DHT22;2295;51.050;14.608;2022-08-11T11:50:29;30.10;33.30
4566;DHT22;2295;51.050;14.608;2022-08-11T11:53:00;30.10;33.10
4566;DHT22;2295;51.050;14.608;2022-08-11T11:55:29;30.00;32.60
4566;DHT22;2295;51.050;14.608;2022-08-11T11:57:59;29.90;32.50
4566;DHT22;2295;51.050;14.608;2022-08-11T12:00:49;30.00;32.70
4566;DHT22;2295;51.050;14.608;2022-08-11T12:03:37;30.20;32.60
4566;DHT22;2295;51.050;14.608;2022-08-11T12:06:07;30.00;33.70
4566;DHT22;2295;51.050;14.608;2022-08-11T12:08:36;30.00;31.80
4566;DHT22;2295;51.050;14.608;2022-08-11T12:11:08;30.10;32.40
4566;DHT22;2295;51.050;14.608;2022-08-11T12:13:52;30.70;31.30
4566;DHT22;2295;51.050;14.608;2022-08-11T12:16:22;30.10;31.50
4566;DHT22;2295;51.050;14.608;2022-08-11T12:19:05;29.60;32.00
4566;DHT22;2295;51.050;14.608;2022-08-11T12:21:37;29.90;32.80
4566;DHT22;2295;51.050;14.608;2022-08-11T12:24:27;29.80;33.30
4566;DHT22;2295;51.050;14.608;2022-08-11T12:27:13;29.60;33.00
4566;DHT22;2295;51.050;14.608;2022-08-11T12:29:54;28.50;34.00
4566;DHT22;2295;51.050;14.608;2022-08-11T12:32:28;27.60;35.70
4566;DHT22;2295;51.050;14.608;2022-08-11T12:34:59;27.60;35.70
4566;DHT22;2295;51.050;14.608;2022-08-11T12:37:30;28.10;34.90
4566;DHT22;2295;51.050;14.608;2022-08-11T12:40:02;28.10;35.10
4566;DHT22;2295;51.050;14.608;2022-08-11T12:43:12;28.30;35.10
4566;DHT22;2295;51.050;14.608;2022-08-11T12:46:06;29.50;34.50
4566;DHT22;2295;51.050;14.608;2022-08-11T12:48:39;30.70;32.90
4566;DHT22;2295;51.050;14.608;2022-08-11T12:51:33;30.30;31.80
4566;DHT22;2295;51.050;14.608;2022-08-11T12:54:55;29.50;33.60
4566;DHT22;2295;51.050;14.608;2022-08-11T12:57:29;29.10;32.80
4566;DHT22;2295;51.050;14.608;2022-08-11T13:00:17;29.00;33.30
4566;DHT22;2295;51.050;14.608;2022-08-11T13:03:05;29.70;34.50
4566;DHT22;2295;51.050;14.608;2022-08-11T13:05:53;30.00;32.10
4566;DHT22;2295;51.050;14.608;2022-08-11T13:08:25;29.50;32.70
4566;DHT22;2295;51.050;14.608;2022-08-11T13:10:59;29.10;33.40
4566;DHT22;2295;51.050;14.608;2022-08-11T13:13:46;29.30;34.30
4566;DHT22;2295;51.050;14.608;2022-08-11T13:16:24;29.40;33.80
4566;DHT22;2295;51.050;14.608;2022-08-11T13:18:54;29.20;32.60
4566;DHT22;2295;51.050;14.608;2022-08-11T13:21:22;29.40;33.60
4566;DHT22;2295;51.050;14.608;2022-08-11T13:23:53;29.90;33.00
4566;DHT22;2295;51.050;14.608;2022-08-11T13:26:33;30.50;31.90
4566;DHT22;2295;51.050;14.608;2022-08-11T13:29:13;30.80;31.80
4566;DHT22;2295;51.050;14.608;2022-08-11T13:31:42;30.50;31.60
4566;DHT22;2295;51.050;14.608;2022-08-11T13:34:12;30.20;30.60
4566;DHT22;2295;51.050;14.608;2022-08-11T13:36:42;29.40;32.00
4566;DHT22;2295;51.050;14.608;2022-08-11T13:39:12;28.90;33.00
4566;DHT22;2295;51.050;14.608;2022-08-11T13:41:42;28.80;33.70
4566;DHT22;2295;51.050;14.608;2022-08-11T13:44:16;28.40;32.60
4566;DHT22;2295;51.050;14.608;2022-08-11T13:46:52;28.40;33.60
4566;DHT22;2295;51.050;14.608;2022-08-11T13:49:21;29.20;32.40
4566;DHT22;2295;51.050;14.608;2022-08-11T13:51:49;29.70;32.60
4566;DHT22;2295;51.050;14.608;2022-08-11T13:54:22;30.00;31.90
4566;DHT22;2295;51.050;14.608;2022-08-11T13:56:53;29.80;32.30
4566;DHT22;2295;51.050;14.608;2022-08-11T13:59:23;30.00;31.60
4566;DHT22;2295;51.050;14.608;2022-08-11T14:01:58;30.20;32.70
4566;DHT22;2295;51.050;14.608;2022-08-11T14:04:54;29.90;31.80
4566;DHT22;2295;51.050;14.608;2022-08-11T14:07:26;29.50;31.80
4566;DHT22;2295;51.050;14.608;2022-08-11T14:09:57;29.20;33.20
4566;DHT22;2295;51.050;14.608;2022-08-11T14:12:28;29.30;33.00
4566;DHT22;2295;51.050;14.608;2022-08-11T14:15:18;29.20;33.10
4566;DHT22;2295;51.050;14.608;2022-08-11T14:17:52;29.60;32.80
4566;DHT22;2295;51.050;14.608;2022-08-11T14:20:22;30.30;31.90
4566;DHT22;2295;51.050;14.608;2022-08-11T14:23:08;30.90;31.40
4566;DHT22;2295;51.050;14.608;2022-08-11T14:25:40;31.10;30.90
4566;DHT22;2295;51.050;14.608;2022-08-11T14:28:31;29.90;31.00
4566;DHT22;2295;51.050;14.608;2022-08-11T14:31:09;28.60;33.80
4566;DHT22;2295;51.050;14.608;2022-08-11T14:33:39;28.60;33.20
4566;DHT22;2295;51.050;14.608;2022-08-11T14:36:30;28.50;33.50
4566;DHT22;2295;51.050;14.608;2022-08-11T14:39:01;28.50;33.10
4566;DHT22;2295;51.050;14.608;2022-08-11T14:41:31;28.90;32.60
4566;DHT22;2295;51.050;14.608;2022-08-11T14:44:39;29.20;33.00
4566;DHT22;2295;51.050;14.608;2022-08-11T14:47:26;29.50;32.30
4566;DHT22;2295;51.050;14.608;2022-08-11T14:49:56;30.40;32.00
4566;DHT22;2295;51.050;14.608;2022-08-11T14:52:42;30.80;31.10
4566;DHT22;2295;51.050;14.608;2022-08-11T14:55:12;30.50;30.80
4566;DHT22;2295;51.050;14.608;2022-08-11T14:58:00;30.30;30.50
4566;DHT22;2295;51.050;14.608;2022-08-11T15:00:29;30.00;30.70
4566;DHT22;2295;51.050;14.608;2022-08-11T15:02:59;30.00;31.20
4566;DHT22;2295;51.050;14.608;2022-08-11T15:05:39;30.00;33.30
4566;DHT22;2295;51.050;14.608;2022-08-11T15:08:25;30.40;30.90
4566;DHT22;2295;51.050;14.608;2022-08-11T15:11:09;31.10;30.40
4566;DHT22;2295;51.050;14.608;2022-08-11T15:14:01;30.90;29.80
4566;DHT22;2295;51.050;14.608;2022-08-11T15:16:30;30.40;30.30
4566;DHT22;2295;51.050;14.608;2022-08-11T15:19:16;30.40;30.90
4566;DHT22;2295;51.050;14.608;2022-08-11T15:21:47;30.10;30.40
4566;DHT22;2295;51.050;14.608;2022-08-11T15:24:33;29.40;31.50
4566;DHT22;2295;51.050;14.608;2022-08-11T15:27:04;29.50;31.20
4566;DHT22;2295;51.050;14.608;2022-08-11T15:29:56;30.00;31.60
4566;DHT22;2295;51.050;14.608;2022-08-11T15:33:03;29.80;31.80
4566;DHT22;2295;51.050;14.608;2022-08-11T15:35:51;30.10;31.40
4566;DHT22;2295;51.050;14.608;2022-08-11T15:38:41;30.10;31.40
4566;DHT22;2295;51.050;14.608;2022-08-11T15:41:14;30.40;31.00
4566;DHT22;2295;51.050;14.608;2022-08-11T15:44:05;30.00;30.50
4566;DHT22;2295;51.050;14.608;2022-08-11T15:47:17;29.60;31.30
4566;DHT22;2295;51.050;14.608;2022-08-11T15:49:51;29.50;31.80
4566;DHT22;2295;51.050;14.608;2022-08-11T15:52:45;29.40;31.90
4566;DHT22;2295;51.050;14.608;2022-08-11T15:55:15;30.00;31.40
4566;DHT22;2295;51.050;14.608;2022-08-11T15:57:48;30.10;31.60
4566;DHT22;2295;51.050;14.608;2022-08-11T16:00:36;30.00;31.70
4566;DHT22;2295;51.050;14.608;2022-08-11T16:03:40;29.90;32.10
4566;DHT22;2295;51.050;14.608;2022-08-11T16:06:36;29.40;32.30
4566;DHT22;2295;51.050;14.608;2022-08-11T16:09:14;29.30;33.10
4566;DHT22;2295;51.050;14.608;2022-08-11T16:11:45;29.70;33.20
4566;DHT22;2295;51.050;14.608;2022-08-11T16:14:15;29.90;32.50
4566;DHT22;2295;51.050;14.608;2022-08-11T16:17:02;29.50;32.20
4566;DHT22;2295;51.050;14.608;2022-08-11T16:19:34;29.30;32.40
4566;DHT22;2295;51.050;14.608;2022-08-11T16:22:07;28.90;32.80
4566;DHT22;2295;51.050;14.608;2022-08-11T16:24:37;28.80;33.20
4566;DHT22;2295;51.050;14.608;2022-08-11T16:27:30;28.70;33.20
4566;DHT22;2295;51.050;14.608;2022-08-11T16:30:00;29.00;32.50
4566;DHT22;2295;51.050;14.608;2022-08-11T16:32:30;29.10;32.70
4566;DHT22;2295;51.050;14.608;2022-08-11T16:35:02;29.40;32.50
4566;DHT22;2295;51.050;14.608;2022-08-11T16:37:51;29.50;32.20
4566;DHT22;2295;51.050;14.608;2022-08-11T16:40:38;29.70;32.20
4566;DHT22;2295;51.050;14.608;2022-08-11T16:43:08;29.30;33.60
4566;DHT22;2295;51.050;14.608;2022-08-11T16:45:57;29.10;32.80
4566;DHT22;2295;51.050;14.608;2022-08-11T16:48:59;29.40;33.70
4566;DHT22;2295;51.050;14.608;2022-08-11T16:51:30;29.70;32.30
4566;DHT22;2295;51.050;14.608;2022-08-11T16:53:59;29.40;32.40
4566;DHT22;2295;51.050;14.608;2022-08-11T16:56:34;29.00;33.20
4566;DHT22;2295;51.050;14.608;2022-08-11T16:59:07;28.70;34.80
4566;DHT22;2295;51.050;14.608;2022-08-11T17:01:46;28.10;34.40
4566;DHT22;2295;51.050;14.608;2022-08-11T17:04:27;27.30;35.00
4566;DHT22;2295;51.050;14.608;2022-08-11T17:07:19;26.60;36.90
4566;DHT22;2295;51.050;14.608;2022-08-11T17:10:17;26.30;37.30
4566;DHT22;2295;51.050;14.608;2022-08-11T17:13:28;26.30;38.20
4566;DHT22;2295;51.050;14.608;2022-08-11T17:16:01;26.00;37.80
4566;DHT22;2295;51.050;14.608;2022-08-11T17:18:50;25.70;38.40
4566;DHT22;2295;51.050;14.608;2022-08-11T17:21:24;25.40;39.10
4566;DHT22;2295;51.050;14.608;2022-08-11T17:23:58;25.10;39.60
4566;DHT22;2295;51.050;14.608;2022-08-11T17:26:36;24.80;40.70
4566;DHT22;2295;51.050;14.608;2022-08-11T17:29:27;24.50;41.50
4566;DHT22;2295;51.050;14.608;2022-08-11T17:31:56;24.40;42.70
4566;DHT22;2295;51.050;14.608;2022-08-11T17:34:45;24.30;43.20
4566;DHT22;2295;51.050;14.608;2022-08-11T17:37:33;24.20;42.20
4566;DHT22;2295;51.050;14.608;2022-08-11T17:40:05;24.00;41.60
4566;DHT22;2295;51.050;14.608;2022-08-11T17:42:35;23.90;43.10
4566;DHT22;2295;51.050;14.608;2022-08-11T17:45:22;23.80;42.90
4566;DHT22;2295;51.050;14.608;2022-08-11T17:48:20;23.60;42.80
4566;DHT22;2295;51.050;14.608;2022-08-11T17:50:57;23.50;43.80
4566;DHT22;2295;51.050;14.608;2022-08-11T17:53:31;23.30;44.20
4566;DHT22;2295;51.050;14.608;2022-08-11T17:56:38;23.20;44.30
4566;DHT22;2295;51.050;14.608;2022-08-11T17:59:23;23.10;45.10
4566;DHT22;2295;51.050;14.608;2022-08-11T18:02:17;22.90;46.10
4566;DHT22;2295;51.050;14.608;2022-08-11T18:05:05;22.70;45.70
4566;DHT22;2295;51.050;14.608;2022-08-11T18:07:40;22.60;46.60
4566;DHT22;2295;51.050;14.608;2022-08-11T18:10:28;22.40;46.50
4566;DHT22;2295;51.050;14.608;2022-08-11T18:13:17;22.20;47.90